Time;durP1;ratioP1;P1;durP2;ratioP2;P2;SDS_P1;SDS_P2;PMS_P1;PMS_P2;Temp;Humidity;BMP_temperature;BMP_pressure;BME280_temperature;BME280_humidity;BME280_pressure;Samples;Min_cycle;Max_cycle;Signal;HPM_P1;HPM_P2
2024/02/09 00:00:02;;;;;;;27.40;20.10;;;;;;;2.78;100.00;94823.63;108611;1267;22536;-72
2024/02/09 00:02:35;;;;;;;29.90;21.60;;;;;;;2.82;100.00;94824.91;108618;1274;22551;-72
2024/02/09 00:05:08;;;;;;;33.30;22.20;;;;;;;2.86;100.00;94814.37;108639;1268;22531;-72
2024/02/09 00:07:39;;;;;;;24.40;18.50;;;;;;;2.89;100.00;94812.19;108644;1275;22543;-72
2024/02/09 00:10:12;;;;;;;24.40;18.80;;;;;;;2.88;100.00;94805.23;108622;1274;22543;-72
2024/02/09 00:12:43;;;;;;;26.70;19.10;;;;;;;2.89;100.00;94803.14;108671;1267;32079;-72
2024/02/09 00:15:18;;;;;;;24.60;17.10;;;;;;;2.92;100.00;94800.85;108863;1267;22575;-72
2024/02/09 00:17:50;;;;;;;26.40;18.30;;;;;;;2.99;100.00;94799.25;108812;1271;22531;-72
2024/02/09 00:20:21;;;;;;;21.70;15.20;;;;;;;3.08;100.00;94793.50;108845;1264;22533;-72
2024/02/09 00:22:52;;;;;;;15.40;9.90;;;;;;;3.29;100.00;94795.98;108763;1264;22522;-72
2024/02/09 00:25:23;;;;;;;10.20;6.70;;;;;;;3.69;100.00;94797.64;108833;1271;25363;-72
2024/02/09 00:27:54;;;;;;;7.70;5.30;;;;;;;4.10;100.00;94796.95;108883;1271;22698;-72
2024/02/09 00:30:26;;;;;;;6.80;4.40;;;;;;;4.42;100.00;94796.59;108922;1271;22525;-72
2024/02/09 00:32:59;;;;;;;6.00;4.20;;;;;;;4.75;100.00;94794.34;108850;1266;22555;-72
2024/02/09 00:35:30;;;;;;;5.90;3.50;;;;;;;5.06;100.00;94790.98;108887;1271;22520;-72
2024/02/09 00:38:02;;;;;;;7.30;4.60;;;;;;;5.37;100.00;94788.30;108870;1264;23541;-72
2024/02/09 00:40:33;;;;;;;6.10;3.90;;;;;;;5.47;100.00;94793.59;108830;1271;22524;-72
2024/02/09 00:43:05;;;;;;;6.30;3.90;;;;;;;5.58;100.00;94793.49;108868;1271;22529;-72
2024/02/09 00:45:36;;;;;;;5.10;2.70;;;;;;;5.77;100.00;94796.84;108833;1269;22546;-72
2024/02/09 00:48:08;;;;;;;5.00;2.90;;;;;;;5.95;100.00;94794.10;108842;1264;22535;-72
2024/02/09 00:50:39;;;;;;;4.70;2.80;;;;;;;6.03;100.00;94794.61;108885;1270;22532;-72
2024/02/09 00:53:10;;;;;;;4.70;3.10;;;;;;;6.10;100.00;94799.23;108876;1266;23536;-72
2024/02/09 00:55:41;;;;;;;3.80;3.10;;;;;;;6.17;100.00;94801.76;108807;1271;22525;-72
2024/02/09 00:58:13;;;;;;;4.00;2.80;;;;;;;6.19;100.00;94792.34;108894;1271;22525;-72
2024/02/09 01:00:43;;;;;;;2.70;2.10;;;;;;;6.35;100.00;94796.40;108820;1271;26586;-72
2024/02/09 01:03:15;;;;;;;3.60;2.10;;;;;;;6.45;100.00;94797.92;108884;1271;22523;-72
2024/02/09 01:05:46;;;;;;;3.70;2.30;;;;;;;6.59;100.00;94805.04;108896;1271;25518;-72
2024/02/09 01:08:18;;;;;;;4.30;2.20;;;;;;;6.64;100.00;94806.15;108847;1269;22656;-72
2024/02/09 01:10:49;;;;;;;3.80;2.20;;;;;;;6.74;100.00;94811.98;108831;1269;22484;-72
2024/02/09 02:46:13;;;;;;;34.60;16.60;;;;;;;2.76;100.00;94825.06;108874;1271;22525;-73
2024/02/09 03:05:39;;;;;;;34.40;18.00;;;;;;;2.73;100.00;94804.58;108857;1270;22533;-73
2024/02/09 03:08:10;;;;;;;58.80;21.20;;;;;;;2.76;100.00;94803.80;108871;1271;22511;-73
2024/02/09 03:10:41;;;;;;;61.00;19.80;;;;;;;2.83;100.00;94803.50;108889;1271;24371;-73
2024/02/09 03:13:13;;;;;;;28.10;17.10;;;;;;;2.82;100.00;94805.75;108885;1266;22593;-73
2024/02/09 03:15:45;;;;;;;40.10;19.80;;;;;;;2.81;100.00;94802.09;108885;1271;22546;-73
2024/02/09 03:18:17;;;;;;;21.00;14.70;;;;;;;2.78;100.00;94808.08;108837;1271;23087;-73
2024/02/09 03:20:48;;;;;;;24.30;15.80;;;;;;;2.76;100.00;94804.06;108885;1271;22542;-73
2024/02/09 03:23:19;;;;;;;42.70;19.10;;;;;;;2.67;100.00;94810.84;108838;1271;25400;-73
2024/02/09 03:25:51;;;;;;;63.20;20.60;;;;;;;2.67;100.00;94812.88;108884;1271;22544;-73
2024/02/09 03:28:22;;;;;;;49.00;19.60;;;;;;;2.70;100.00;94811.71;108925;1271;24244;-73
2024/02/09 03:30:53;;;;;;;38.90;17.50;;;;;;;2.73;100.00;94809.80;108869;1271;22564;-73
2024/02/09 03:33:24;;;;;;;37.40;16.70;;;;;;;2.67;100.00;94809.73;108832;1264;22561;-73
2024/02/09 03:35:55;;;;;;;33.10;17.00;;;;;;;2.64;100.00;94808.80;108884;1271;22519;-73
2024/02/09 03:38:26;;;;;;;36.90;17.90;;;;;;;2.57;100.00;94805.47;108808;1271;25415;-73
2024/02/09 03:40:57;;;;;;;40.00;19.20;;;;;;;2.59;100.00;94802.94;108856;1264;22528;-73
2024/02/09 03:43:28;;;;;;;42.40;21.30;;;;;;;2.58;100.00;94805.46;108739;1272;26234;-73
2024/02/09 03:46:00;;;;;;;55.80;22.10;;;;;;;2.61;100.00;94802.08;108724;1272;22525;-73
2024/02/09 03:48:31;;;;;;;42.50;19.60;;;;;;;2.66;100.00;94798.17;108857;1266;22524;-73
2024/02/09 03:51:02;;;;;;;29.80;18.30;;;;;;;2.71;100.00;94795.11;108766;1272;24222;-73
2024/02/09 03:53:34;;;;;;;31.90;18.90;;;;;;;2.77;100.00;94790.25;108764;1272;22546;-73
2024/02/09 03:56:05;;;;;;;31.40;18.40;;;;;;;2.80;100.00;94788.02;108767;1266;22530;-73
2024/02/09 03:58:36;;;;;;;28.80;18.60;;;;;;;2.83;100.00;94786.03;108798;1272;22527;-73
2024/02/09 04:01:11;;;;;;;32.60;18.90;;;;;;;2.86;100.00;94786.10;108713;1266;25239;-73
2024/02/09 04:03:43;;;;;;;46.30;21.20;;;;;;;2.85;100.00;94789.10;108852;1268;23139;-73
2024/02/09 04:06:13;;;;;;;35.80;19.40;;;;;;;2.84;100.00;94785.76;108867;1271;25399;-73
2024/02/09 04:08:45;;;;;;;28.40;17.10;;;;;;;2.80;100.00;94791.90;108884;1271;22516;-73
2024/02/09 04:11:24;;;;;;;28.80;17.20;;;;;;;2.77;100.00;94787.16;108865;1271;22579;-73
2024/02/09 04:13:55;;;;;;;24.80;16.40;;;;;;;2.77;100.00;94792.96;108881;1271;22520;-73
2024/02/09 04:16:26;;;;;;;31.80;19.40;;;;;;;2.77;100.00;94791.55;108852;1271;23007;-73
2024/02/09 04:18:57;;;;;;;36.00;19.80;;;;;;;2.77;100.00;94789.46;108913;1271;22525;-73
2024/02/09 04:21:28;;;;;;;27.20;17.20;;;;;;;2.74;100.00;94793.94;108856;1266;42919;-73
2024/02/09 04:23:59;;;;;;;25.80;17.00;;;;;;;2.73;100.00;94795.47;108900;1264;22527;-73
2024/02/09 04:26:30;;;;;;;28.50;17.60;;;;;;;2.73;100.00;94786.67;108890;1271;22530;-73
2024/02/09 04:29:04;;;;;;;27.40;17.00;;;;;;;2.77;100.00;94788.14;108848;1271;25323;-73
2024/02/09 04:31:35;;;;;;;25.50;17.00;;;;;;;2.83;100.00;94788.43;108862;1266;22543;-73
2024/02/09 04:34:06;;;;;;;29.60;19.10;;;;;;;2.89;100.00;94790.42;108888;1266;22521;-72
2024/02/09 04:36:39;;;;;;;30.00;19.90;;;;;;;2.90;100.00;94790.35;108820;1271;25398;-72
2024/02/09 04:39:11;;;;;;;31.60;20.90;;;;;;;2.95;100.00;94786.98;108783;1266;22569;-72
2024/02/09 04:41:44;;;;;;;26.00;16.50;;;;;;;2.98;100.00;94789.68;108739;1271;24172;-72
2024/02/09 04:44:20;;;;;;;26.40;18.00;;;;;;;3.02;100.00;94786.70;108805;1270;24269;-72
2024/02/09 04:46:51;;;;;;;26.40;17.30;;;;;;;3.09;100.00;94784.55;108823;1271;24158;-72
2024/02/09 04:49:22;;;;;;;27.40;17.20;;;;;;;3.14;100.00;94785.40;108823;1269;23190;-72
2024/02/09 04:51:54;;;;;;;22.50;15.10;;;;;;;3.20;100.00;94783.77;108880;1271;24228;-72
2024/02/09 04:54:25;;;;;;;20.30;13.00;;;;;;;3.31;100.00;94784.77;108826;1270;22591;-72
2024/02/09 04:56:56;;;;;;;17.70;11.20;;;;;;;3.49;100.00;94777.67;108812;1271;24185;-72
2024/02/09 04:59:30;;;;;;;13.10;7.20;;;;;;;3.71;100.00;94780.27;108853;1264;22544;-72
2024/02/09 05:02:01;;;;;;;9.00;4.90;;;;;;;4.31;100.00;94779.41;108749;1269;23302;-72
2024/02/09 05:04:32;;;;;;;9.00;4.50;;;;;;;5.02;100.00;94778.73;108796;1272;22524;-72
2024/02/09 05:07:04;;;;;;;7.70;4.10;;;;;;;5.63;100.00;94780.41;108760;1264;22529;-72
2024/02/09 05:09:37;;;;;;;8.20;4.80;;;;;;;6.07;100.00;94777.65;108917;1266;22853;-73
2024/02/09 05:12:09;;;;;;;9.10;4.50;;;;;;;6.38;100.00;94771.96;108772;1254;24488;-72
2024/02/09 05:14:41;;;;;;;8.50;4.20;;;;;;;6.58;100.00;94768.27;108826;1270;22535;-72
2024/02/09 05:17:12;;;;;;;8.00;3.80;;;;;;;6.70;100.00;94771.67;108901;1271;22564;-72
2024/02/09 05:19:43;;;;;;;7.90;4.90;;;;;;;6.80;100.00;94769.72;108900;1271;22538;-72
2024/02/09 05:22:14;;;;;;;7.00;3.50;;;;;;;6.88;100.00;94772.00;108908;1266;22978;-72
2024/02/09 05:24:45;;;;;;;5.50;3.90;;;;;;;6.97;100.00;94765.03;108909;1258;22524;-72
2024/02/09 05:27:16;;;;;;;12.40;4.90;;;;;;;7.07;100.00;94765.98;108844;1271;22595;-72
2024/02/09 05:29:47;;;;;;;11.60;5.50;;;;;;;7.16;100.00;94774.48;108758;1271;22631;-73
2024/02/09 05:32:21;;;;;;;7.20;3.70;;;;;;;7.24;100.00;94771.00;108747;1271;22535;-73
2024/02/09 05:34:52;;;;;;;12.40;4.90;;;;;;;7.32;100.00;94771.27;108756;1272;22514;-72
2024/02/09 05:37:23;;;;;;;11.00;5.00;;;;;;;7.36;100.00;94764.40;108798;1271;22655;-73
2024/02/09 05:39:56;;;;;;;11.90;4.40;;;;;;;7.38;100.00;94757.46;108770;1271;22538;-72
2024/02/09 05:42:27;;;;;;;10.40;5.00;;;;;;;7.42;100.00;94762.25;108771;1271;24493;-72
2024/02/09 05:44:58;;;;;;;11.80;5.20;;;;;;;7.44;100.00;94761.48;108904;1271;22518;-72
2024/02/09 05:47:30;;;;;;;10.60;5.20;;;;;;;7.47;100.00;94759.95;108865;1271;22608;-72
2024/02/09 05:50:03;;;;;;;8.50;4.60;;;;;;;7.53;100.00;94759.27;108869;1266;22541;-72
2024/02/09 05:52:34;;;;;;;8.30;4.40;;;;;;;7.53;100.00;94761.96;108880;1269;25497;-72
2024/02/09 05:55:08;;;;;;;11.60;5.20;;;;;;;7.54;100.00;94757.61;108830;1271;22645;-72
2024/02/09 05:57:39;;;;;;;11.10;5.20;;;;;;;7.53;100.00;94761.53;108876;1264;22563;-72
2024/02/09 06:00:15;;;;;;;10.60;5.60;;;;;;;7.50;100.00;94765.69;108853;1265;22536;-72
2024/02/09 06:02:46;;;;;;;10.80;4.60;;;;;;;7.49;100.00;94766.30;108879;1271;22528;-72
2024/02/09 06:05:17;;;;;;;9.00;4.40;;;;;;;7.50;100.00;94768.63;108815;1271;24497;-72
2024/02/09 06:07:48;;;;;;;7.60;4.80;;;;;;;7.52;100.00;94764.73;108815;1271;22613;-72
2024/02/09 06:10:20;;;;;;;9.80;5.00;;;;;;;7.55;100.00;94767.95;108918;1271;22517;-72
2024/02/09 06:12:51;;;;;;;10.50;5.70;;;;;;;7.56;100.00;94760.09;108868;1271;23157;-72
2024/02/09 06:15:21;;;;;;;8.60;5.50;;;;;;;7.60;100.00;94768.05;108867;1271;22517;-72
2024/02/09 06:17:52;;;;;;;10.70;5.20;;;;;;;7.62;100.00;94773.27;108863;1271;25396;-72
2024/02/09 06:20:24;;;;;;;11.10;5.60;;;;;;;7.64;100.00;94763.85;108901;1271;22509;-72
2024/02/09 06:22:56;;;;;;;8.80;4.50;;;;;;;7.69;100.00;94771.25;108888;1270;22527;-72
2024/02/09 06:25:27;;;;;;;9.10;5.30;;;;;;;7.71;100.00;94774.35;108855;1266;22529;-72
2024/02/09 06:28:02;;;;;;;13.10;5.90;;;;;;;7.74;100.00;94776.70;108828;1271;23099;-72
2024/02/09 06:30:33;;;;;;;11.80;5.90;;;;;;;7.77;100.00;94788.52;108848;1271;22574;-71
2024/02/09 06:33:05;;;;;;;11.10;5.40;;;;;;;7.79;100.00;94783.33;108773;1271;25021;-72
2024/02/09 06:35:37;;;;;;;10.30;5.00;;;;;;;7.79;100.00;94785.07;108880;1271;22534;-71
2024/02/09 06:38:08;;;;;;;10.70;5.20;;;;;;;7.80;100.00;94790.99;108821;1271;22745;-72
2024/02/09 06:40:39;;;;;;;10.20;5.40;;;;;;;7.83;100.00;94787.96;108816;1263;22640;-72
2024/02/09 06:43:11;;;;;;;10.20;5.70;;;;;;;7.90;100.00;94790.63;108815;1271;23417;-72
2024/02/09 06:45:42;;;;;;;9.10;4.80;;;;;;;7.93;100.00;94790.77;108751;1265;25013;-72
2024/02/09 06:48:13;;;;;;;10.30;5.40;;;;;;;7.94;100.00;94788.50;108826;1266;22550;-72
2024/02/09 06:50:45;;;;;;;9.10;4.00;;;;;;;7.99;100.00;94791.27;108772;1258;24190;-72
2024/02/09 06:53:16;;;;;;;10.30;4.70;;;;;;;8.00;100.00;94788.83;108841;1266;22582;-72
2024/02/09 06:55:49;;;;;;;8.40;4.30;;;;;;;8.02;100.00;94787.56;108871;1269;24665;-72
2024/02/09 06:58:22;;;;;;;9.30;3.90;;;;;;;8.03;100.00;94789.01;108976;1271;22637;-72
2024/02/09 07:00:53;;;;;;;9.30;5.20;;;;;;;8.07;100.00;94797.83;108904;1263;22524;-72
2024/02/09 07:03:26;;;;;;;6.50;3.80;;;;;;;8.11;100.00;94797.98;108886;1272;25437;-72
2024/02/09 07:06:03;;;;;;;9.60;3.70;;;;;;;8.13;100.00;94796.22;108958;1268;22535;-71
2024/02/09 07:08:39;;;;;;;9.60;4.40;;;;;;;8.15;100.00;94798.27;108951;1271;24132;-72
2024/02/09 07:11:12;;;;;;;9.80;4.10;;;;;;;8.17;100.00;94798.14;108881;1264;22551;-72
2024/02/09 07:13:43;;;;;;;7.70;4.30;;;;;;;8.17;100.00;94800.66;108948;1269;22688;-71
2024/02/09 07:16:14;;;;;;;8.20;3.70;;;;;;;8.19;100.00;94799.77;108950;1270;22825;-72
2024/02/09 07:18:45;;;;;;;9.30;3.80;;;;;;;8.21;100.00;94803.99;108843;1264;24262;-72
2024/02/09 07:21:17;;;;;;;10.30;5.00;;;;;;;8.22;100.00;94806.97;108813;1271;22525;-72
2024/02/09 07:23:50;;;;;;;12.00;4.40;;;;;;;8.23;100.00;94800.60;108817;1271;22965;-72
2024/02/09 07:26:24;;;;;;;7.40;3.90;;;;;;;8.27;100.00;94806.66;108822;1271;22516;-71
2024/02/09 07:28:57;;;;;;;10.10;4.20;;;;;;;8.30;100.00;94807.60;108867;1271;22568;-72
2024/02/09 07:31:29;;;;;;;7.60;4.80;;;;;;;8.35;100.00;94808.27;108829;1266;23402;-72
2024/02/09 07:34:01;;;;;;;8.00;4.00;;;;;;;8.36;100.00;94815.02;108855;1271;22524;-72
2024/02/09 07:36:32;;;;;;;8.50;4.70;;;;;;;8.37;100.00;94816.38;108820;1271;22634;-72
2024/02/09 07:39:03;;;;;;;7.00;4.10;;;;;;;8.40;100.00;94817.87;108847;1271;22559;-72
2024/02/09 07:41:35;;;;;;;9.80;4.50;;;;;;;8.42;100.00;94814.70;108791;1263;22538;-73
2024/02/09 07:44:07;;;;;;;6.80;4.00;;;;;;;8.44;100.00;94818.51;108862;1264;22670;-72
2024/02/09 07:46:38;;;;;;;9.90;5.10;;;;;;;8.45;100.00;94814.95;108810;1271;22524;-72
2024/02/09 07:49:09;;;;;;;9.20;5.00;;;;;;;8.47;100.00;94817.65;108788;1264;22545;-71
2024/02/09 07:51:41;;;;;;;6.60;4.00;;;;;;;8.46;100.00;94817.38;108754;1264;24996;-71
2024/02/09 07:54:12;;;;;;;8.70;4.90;;;;;;;8.44;100.00;94817.50;108829;1266;22515;-71
2024/02/09 07:56:43;;;;;;;9.60;3.80;;;;;;;8.44;100.00;94816.38;108772;1264;22564;-72
2024/02/09 07:59:14;;;;;;;8.00;3.80;;;;;;;8.44;100.00;94817.65;108799;1266;22522;-71
2024/02/09 08:01:45;;;;;;;10.80;4.10;;;;;;;8.45;100.00;94809.57;108774;1267;24221;-72
2024/02/09 08:04:16;;;;;;;11.20;4.30;;;;;;;8.48;100.00;94811.47;108742;1266;22521;-72
2024/02/09 08:06:48;;;;;;;8.60;4.20;;;;;;;8.51;100.00;94815.44;108810;1271;22517;-72
2024/02/09 08:09:19;;;;;;;9.80;4.60;;;;;;;8.57;100.00;94811.48;108881;1270;22535;-71
2024/02/09 08:11:50;;;;;;;8.30;4.00;;;;;;;8.61;99.99;94810.91;108888;1271;33710;-71
2024/02/09 08:14:22;;;;;;;8.30;4.90;;;;;;;8.64;100.00;94812.92;108913;1263;22549;-72
2024/02/09 08:16:54;;;;;;;10.50;4.20;;;;;;;8.67;99.86;94814.79;108927;1271;22527;-71
2024/02/09 08:19:25;;;;;;;10.20;4.60;;;;;;;8.69;99.86;94819.47;108967;1271;25418;-71
2024/02/09 08:21:56;;;;;;;10.90;4.50;;;;;;;8.73;99.82;94822.74;108867;1271;25108;-71
2024/02/09 08:24:27;;;;;;;10.80;5.00;;;;;;;8.79;99.68;94818.95;108849;1262;25284;-71
2024/02/09 08:26:59;;;;;;;9.80;4.80;;;;;;;8.83;99.55;94817.52;108911;1264;24335;-71
2024/02/09 08:29:32;;;;;;;8.20;4.50;;;;;;;8.88;99.37;94814.20;108968;1264;22518;-73
2024/02/09 08:32:04;;;;;;;9.20;5.00;;;;;;;8.93;99.27;94811.72;108994;1271;25470;-74
2024/02/09 08:34:35;;;;;;;9.10;3.90;;;;;;;8.98;99.05;94817.86;108990;1256;22514;-73
2024/02/09 08:37:06;;;;;;;10.00;5.50;;;;;;;9.01;98.84;94821.80;108869;1271;25549;-74
2024/02/09 08:39:40;;;;;;;8.20;4.90;;;;;;;9.05;98.73;94817.81;108993;1271;22527;-73
2024/02/09 08:42:11;;;;;;;11.00;4.90;;;;;;;9.14;98.75;94813.36;108906;1271;22517;-73
2024/02/09 08:44:42;;;;;;;9.70;4.60;;;;;;;9.22;98.50;94816.36;108909;1271;22530;-73
2024/02/09 08:47:13;;;;;;;12.30;5.30;;;;;;;9.26;98.22;94818.04;108891;1264;24148;-73
2024/02/09 08:49:44;;;;;;;9.20;6.00;;;;;;;9.27;98.03;94824.03;108890;1271;22515;-73
2024/02/09 08:52:17;;;;;;;9.30;4.80;;;;;;;9.27;97.82;94821.48;108850;1264;22555;-73
2024/02/09 08:54:48;;;;;;;11.20;5.70;;;;;;;9.28;97.59;94828.15;108942;1271;24199;-73
2024/02/09 08:57:20;;;;;;;10.50;5.80;;;;;;;9.24;97.19;94832.69;108927;1271;22764;-73
2024/02/09 08:59:51;;;;;;;12.80;5.80;;;;;;;9.22;97.14;94823.08;108970;1267;22525;-74
2024/02/09 09:02:23;;;;;;;10.30;4.70;;;;;;;9.23;96.94;94822.43;108914;1267;25411;-73
2024/02/09 09:04:54;;;;;;;11.50;5.20;;;;;;;9.23;96.74;94819.88;109022;1268;25443;-73
2024/02/09 09:07:26;;;;;;;9.50;5.10;;;;;;;9.24;96.66;94817.80;109002;1268;25325;-74
2024/02/09 09:09:57;;;;;;;13.00;5.60;;;;;;;9.26;96.59;94817.26;108990;1271;22518;-74
2024/02/09 09:12:28;;;;;;;9.40;4.90;;;;;;;9.31;96.52;94818.94;108994;1258;22530;-73
2024/02/09 09:14:59;;;;;;;9.10;4.90;;;;;;;9.40;96.63;94818.70;108982;1271;22542;-73
2024/02/09 09:17:30;;;;;;;9.00;4.80;;;;;;;9.48;96.64;94812.47;108931;1268;22551;-73
2024/02/09 09:20:03;;;;;;;13.30;5.60;;;;;;;9.58;96.42;94809.17;108907;1271;22520;-73
2024/02/09 09:22:34;;;;;;;11.40;5.20;;;;;;;9.75;96.49;94808.66;108697;1265;50350;-73
2024/02/09 09:25:07;;;;;;;10.70;5.60;;;;;;;9.89;96.16;94811.73;108810;1266;22521;-73
2024/02/09 09:27:38;;;;;;;11.40;6.10;;;;;;;9.99;95.88;94807.95;108837;1247;22541;-72
2024/02/09 09:30:12;;;;;;;10.60;5.00;;;;;;;10.13;96.02;94804.59;108788;1266;25265;-73
2024/02/09 09:32:43;;;;;;;11.60;5.10;;;;;;;10.32;95.70;94799.97;108802;1271;25357;-73
2024/02/09 09:35:15;;;;;;;12.70;5.50;;;;;;;10.38;95.08;94799.44;108855;1271;22514;-73
2024/02/09 09:37:46;;;;;;;9.60;4.70;;;;;;;10.36;94.71;94795.20;108874;1271;22525;-73
2024/02/09 09:40:20;;;;;;;10.80;5.40;;;;;;;10.33;94.32;94800.24;108911;1266;25316;-72
2024/02/09 09:42:52;;;;;;;12.40;6.90;;;;;;;10.26;93.86;94798.84;108922;1266;24143;-72
2024/02/09 09:45:23;;;;;;;14.20;6.40;;;;;;;10.18;93.53;94797.75;108932;1271;22563;-73
2024/02/09 09:47:57;;;;;;;14.50;8.10;;;;;;;10.11;93.39;94795.12;108905;1269;22525;-72
2024/02/09 09:50:28;;;;;;;10.50;5.90;;;;;;;10.05;93.28;94791.52;108895;1270;22522;-73
2024/02/09 09:53:05;;;;;;;10.00;5.00;;;;;;;10.06;93.12;94797.20;108862;1271;22521;-73
2024/02/09 09:55:37;;;;;;;10.60;5.40;;;;;;;10.07;92.80;94789.60;108791;1267;22534;-73
2024/02/09 09:58:08;;;;;;;8.80;5.10;;;;;;;10.07;92.76;94785.59;108853;1271;22528;-73
2024/02/09 10:00:41;;;;;;;10.10;5.50;;;;;;;10.07;92.56;94783.15;108821;1271;22534;-72
2024/02/09 10:03:13;;;;;;;11.40;5.10;;;;;;;10.06;92.17;94780.35;108780;1266;23755;-72
2024/02/09 10:05:45;;;;;;;10.60;5.30;;;;;;;10.08;91.99;94779.50;108949;1264;23242;-73
2024/02/09 10:08:17;;;;;;;11.50;5.10;;;;;;;10.14;91.89;94781.41;108939;1270;22512;-74
2024/02/09 10:10:51;;;;;;;10.40;4.20;;;;;;;10.21;91.72;94783.35;108997;1266;22575;-72
2024/02/09 10:13:25;;;;;;;8.10;3.10;;;;;;;10.28;91.33;94780.30;108974;1271;25261;-73
2024/02/09 10:15:58;;;;;;;11.60;4.00;;;;;;;10.37;90.47;94775.02;109004;1271;24215;-73
2024/02/09 10:18:32;;;;;;;9.20;3.70;;;;;;;10.49;90.77;94772.51;108937;1269;22736;-73
2024/02/09 10:21:07;;;;;;;8.60;3.20;;;;;;;10.62;90.52;94775.83;108819;1266;22917;-73
2024/02/09 10:23:39;;;;;;;11.40;3.90;;;;;;;10.68;89.44;94768.76;108896;1266;22593;-74
2024/02/09 10:26:10;;;;;;;12.30;4.50;;;;;;;10.73;88.88;94770.48;108851;1272;22540;-73
2024/02/09 10:28:42;;;;;;;13.50;3.70;;;;;;;10.79;88.28;94763.33;108790;1272;22532;-73
2024/02/09 10:31:15;;;;;;;7.10;3.20;;;;;;;10.84;87.94;94761.30;108870;1272;27475;-73
2024/02/09 10:33:48;;;;;;;8.70;4.00;;;;;;;10.98;88.10;94759.92;108934;1269;22532;-73
2024/02/09 10:36:23;;;;;;;16.20;4.70;;;;;;;11.13;88.28;94757.63;108935;1271;25271;-73
2024/02/09 10:38:58;;;;;;;10.60;4.70;;;;;;;11.27;88.17;94752.27;108931;1267;22553;-74
2024/02/09 10:41:33;;;;;;;9.80;3.90;;;;;;;11.38;87.91;94744.83;108962;1270;24180;-73
2024/02/09 10:44:10;;;;;;;8.40;3.80;;;;;;;11.48;87.71;94743.82;108951;1266;24182;-73
2024/02/09 10:46:43;;;;;;;10.50;4.60;;;;;;;11.58;87.57;94738.90;108983;1267;22535;-73
2024/02/09 10:49:16;;;;;;;10.80;4.60;;;;;;;11.68;87.50;94731.64;108955;1250;22513;-73
2024/02/09 10:51:51;;;;;;;10.20;5.20;;;;;;;11.76;87.59;94731.52;108876;1266;22551;-73
2024/02/09 10:54:27;;;;;;;8.80;4.90;;;;;;;11.76;87.20;94732.35;108846;1250;22546;-73
2024/02/09 10:56:59;;;;;;;10.90;5.70;;;;;;;11.77;86.93;94724.73;108898;1268;22535;-73
2024/02/09 10:59:35;;;;;;;11.60;5.70;;;;;;;11.87;87.23;94724.01;108882;1266;24232;-73
2024/02/09 11:02:08;;;;;;;10.40;5.70;;;;;;;11.96;86.80;94718.35;108866;1271;22525;-73
2024/02/09 11:04:39;;;;;;;13.70;5.90;;;;;;;12.00;86.21;94715.93;108918;1269;22554;-72
2024/02/09 11:07:14;;;;;;;11.60;5.90;;;;;;;12.08;85.99;94712.56;108901;1268;23860;-73
2024/02/09 11:09:46;;;;;;;9.50;5.00;;;;;;;12.06;85.56;94706.38;108865;1264;22511;-73
2024/02/09 11:12:20;;;;;;;11.30;5.40;;;;;;;12.08;85.45;94701.81;108915;1266;22568;-70
2024/02/09 11:14:51;;;;;;;10.50;5.30;;;;;;;12.16;85.22;94700.70;108829;1269;22630;-70
2024/02/09 11:17:22;;;;;;;13.40;5.50;;;;;;;12.20;84.74;94699.96;108729;1269;218745;-73
2024/02/09 11:19:54;;;;;;;11.00;5.20;;;;;;;12.23;84.54;94700.13;108787;1272;22528;-73
2024/02/09 11:22:25;;;;;;;9.60;5.20;;;;;;;12.28;84.32;94695.42;108768;1266;22648;-73
2024/02/09 11:25:04;;;;;;;11.30;6.20;;;;;;;12.25;83.89;94690.64;108765;1272;22595;-73
2024/02/09 11:27:35;;;;;;;7.80;4.30;;;;;;;12.28;84.12;94686.08;108804;1262;23007;-73
2024/02/09 11:30:12;;;;;;;7.30;3.90;;;;;;;12.27;83.57;94684.93;108767;1272;23161;-72
2024/02/09 11:32:45;;;;;;;10.60;4.60;;;;;;;12.31;83.60;94687.08;108827;1271;24498;-74
2024/02/09 11:35:17;;;;;;;7.00;3.40;;;;;;;12.41;83.15;94685.33;108841;1271;22569;-73
2024/02/09 11:37:48;;;;;;;8.40;4.80;;;;;;;12.48;82.49;94678.75;108909;1266;22539;-72
2024/02/09 11:40:20;;;;;;;13.80;4.40;;;;;;;12.52;82.71;94682.52;108854;1271;22563;-74
2024/02/09 11:42:52;;;;;;;10.70;4.90;;;;;;;12.68;82.55;94681.75;108893;1271;22692;-74
2024/02/09 11:45:24;;;;;;;13.30;5.80;;;;;;;12.82;82.77;94687.91;108943;1271;22537;-74
2024/02/09 11:47:57;;;;;;;9.10;5.00;;;;;;;12.78;81.60;94686.67;108943;1269;22621;-74
2024/02/09 11:50:31;;;;;;;9.40;5.40;;;;;;;12.65;81.29;94677.51;108832;1266;22524;-74
2024/02/09 11:53:07;;;;;;;10.40;5.70;;;;;;;12.57;80.65;94679.53;108855;1271;22525;-74
2024/02/09 11:55:42;;;;;;;10.60;5.40;;;;;;;12.45;80.39;94679.83;108921;1271;22562;-74
2024/02/09 11:58:14;;;;;;;14.00;6.70;;;;;;;12.38;80.31;94682.13;108969;1266;22540;-74
2024/02/09 12:00:50;;;;;;;11.30;6.00;;;;;;;12.34;80.28;94683.68;108945;1272;22562;-75
2024/02/09 12:03:21;;;;;;;13.00;6.00;;;;;;;12.26;80.33;94684.77;108902;1272;25899;-74
2024/02/09 12:05:53;;;;;;;10.20;5.50;;;;;;;12.28;80.63;94682.52;108902;1272;22519;-74
2024/02/09 12:08:26;;;;;;;8.90;5.40;;;;;;;12.26;80.42;94686.28;108869;1269;22561;-74
2024/02/09 12:10:57;;;;;;;12.30;5.50;;;;;;;12.24;80.72;94682.77;108828;1264;22533;-74
2024/02/09 12:13:28;;;;;;;9.80;4.60;;;;;;;12.25;80.95;94680.61;108805;1269;22578;-74
2024/02/09 12:16:00;;;;;;;9.20;4.60;;;;;;;12.31;81.06;94678.89;108837;1264;22542;-74
2024/02/09 12:18:32;;;;;;;11.20;4.60;;;;;;;12.25;80.27;94680.92;108829;1268;22524;-73
2024/02/09 12:21:06;;;;;;;10.60;4.70;;;;;;;12.17;79.72;94683.41;108828;1264;22524;-74
2024/02/09 12:23:39;;;;;;;11.30;4.00;;;;;;;12.14;79.54;94688.87;108776;1264;25310;-73
2024/02/09 12:26:12;;;;;;;7.50;4.30;;;;;;;12.10;78.99;94688.21;108877;1272;24209;-74
2024/02/09 12:28:45;;;;;;;9.40;4.10;;;;;;;12.05;78.54;94688.45;108929;1270;22540;-73
2024/02/09 12:31:18;;;;;;;11.70;4.80;;;;;;;12.07;78.57;94683.17;108880;1269;22540;-74
2024/02/09 12:33:52;;;;;;;18.30;10.10;;;;;;;12.08;78.32;94689.05;108740;1272;22540;-73
2024/02/09 12:36:23;;;;;;;9.80;5.20;;;;;;;12.05;77.87;94691.61;108784;1272;26420;-73
2024/02/09 12:38:56;;;;;;;52.70;33.60;;;;;;;12.03;77.44;94695.30;108768;1272;22527;-73
2024/02/09 12:41:27;;;;;;;12.40;6.00;;;;;;;11.93;75.89;94690.88;108733;1272;22534;-73
2024/02/09 12:44:00;;;;;;;12.70;6.80;;;;;;;11.81;75.08;94688.71;108773;1264;22551;-74
2024/02/09 12:46:33;;;;;;;12.30;6.10;;;;;;;11.83;75.90;94688.08;108886;1267;22694;-74
2024/02/09 12:49:08;;;;;;;9.40;4.20;;;;;;;11.88;76.32;94688.71;108795;1263;22550;-74
2024/02/09 12:51:42;;;;;;;15.80;6.10;;;;;;;11.89;75.79;94683.80;108804;1272;23153;-74
2024/02/09 12:54:13;;;;;;;10.90;5.30;;;;;;;11.86;75.94;94688.88;108749;1269;25412;-74
2024/02/09 12:56:44;;;;;;;8.70;4.60;;;;;;;11.87;76.16;94685.80;108790;1271;22530;-74
2024/02/09 12:59:16;;;;;;;10.80;4.90;;;;;;;11.88;76.02;94681.26;108769;1269;22524;-74
2024/02/09 13:01:48;;;;;;;9.90;4.90;;;;;;;11.87;76.10;94683.05;108799;1272;22534;-74
2024/02/09 13:04:20;;;;;;;7.40;3.80;;;;;;;11.85;75.94;94681.70;108659;1267;23166;-74
2024/02/09 13:06:51;;;;;;;7.30;4.20;;;;;;;11.84;75.99;94685.31;108565;1272;22524;-74
2024/02/09 13:09:22;;;;;;;6.30;3.90;;;;;;;11.78;75.67;94679.88;108696;1266;22689;-74
2024/02/09 13:11:53;;;;;;;8.80;4.20;;;;;;;11.72;75.31;94677.54;108622;1269;25351;-74
2024/02/09 13:14:24;;;;;;;11.80;4.80;;;;;;;11.58;74.36;94677.73;108662;1272;23162;-73
2024/02/09 13:16:58;;;;;;;7.60;3.70;;;;;;;11.53;74.79;94672.48;108631;1270;22661;-73
2024/02/09 13:19:29;;;;;;;8.70;4.20;;;;;;;11.48;74.68;94673.89;108619;1272;22538;-73
2024/02/09 13:22:04;;;;;;;9.10;4.40;;;;;;;11.41;74.45;94671.17;108670;1272;22524;-73
2024/02/09 13:24:39;;;;;;;8.20;4.00;;;;;;;11.37;74.30;94671.88;108778;1271;22528;-73
2024/02/09 13:27:12;;;;;;;8.20;3.90;;;;;;;11.30;73.79;94673.05;108829;1272;24426;-73
2024/02/09 13:29:43;;;;;;;8.00;4.50;;;;;;;11.22;73.08;94680.14;108871;1265;22533;-73